createdAt,value
2023-04-18T00:00:29.107Z,9.20
2023-04-18T00:05:33.230Z,9.65
2023-04-18T00:10:35.959Z,10.63
2023-04-18T00:15:38.795Z,10.35
2023-04-18T00:20:42.863Z,11.43
2023-04-18T00:25:45.614Z,10.20
2023-04-18T00:30:48.852Z,10.30
2023-04-18T00:35:53.197Z,9.98
2023-04-18T00:40:55.952Z,10.35
2023-04-18T00:46:01.421Z,9.85
2023-04-18T00:51:06.464Z,11.75
2023-04-18T00:56:09.511Z,9.55
2023-04-18T01:01:13.378Z,9.32
2023-04-18T01:06:17.700Z,10.05
2023-04-18T01:11:20.584Z,9.32
2023-04-18T01:16:23.683Z,9.18
2023-04-18T01:21:31.058Z,10.60
2023-04-18T01:31:41.798Z,10.07
2023-04-18T01:36:44.777Z,11.05
2023-04-18T01:41:48.978Z,10.88
2023-04-18T01:46:53.340Z,12.57
2023-04-18T01:51:56.135Z,12.82
2023-04-18T01:57:00.362Z,13.13
2023-04-18T02:02:03.378Z,13.13
2023-04-18T02:07:06.306Z,13.38
2023-04-18T02:12:12.502Z,13.02
2023-04-18T02:17:15.300Z,12.52
2023-04-18T02:22:18.625Z,12.23
2023-04-18T02:27:22.974Z,13.48
2023-04-18T02:32:25.964Z,13.45
2023-04-18T02:37:28.799Z,15.35
2023-04-18T02:42:32.874Z,13.60
2023-04-18T02:47:43.840Z,14.52
2023-04-18T02:52:56.896Z,14.63
2023-04-18T02:58:09.139Z,17.15
2023-04-18T03:03:30.459Z,16.05
2023-04-18T03:08:44.470Z,17.20
2023-04-18T03:13:48.799Z,19.95
2023-04-18T03:18:52.300Z,19.15
2023-04-18T03:23:57.372Z,20.85
2023-04-18T03:29:02.904Z,20.08
2023-04-18T03:34:05.737Z,19.30
2023-04-18T03:39:09.407Z,21.95
2023-04-18T03:44:13.961Z,18.90
2023-04-18T03:49:18.753Z,22.35
2023-04-18T03:54:21.590Z,17.25
2023-04-18T03:59:26.847Z,21.63
2023-04-18T04:04:30.808Z,19.70
2023-04-18T04:09:35.719Z,18.35
2023-04-18T04:14:40.147Z,20.60
2023-04-18T04:19:43.171Z,20.83
2023-04-18T04:24:51.656Z,19.23
2023-04-18T04:30:02.537Z,21.42
2023-04-18T04:35:06.759Z,18.95
2023-04-18T04:40:10.906Z,19.02
2023-04-18T04:45:23.273Z,19.33
2023-04-18T04:50:28.289Z,21.17
2023-04-18T04:55:31.171Z,18.75
2023-04-18T05:00:35.854Z,20.38
2023-04-18T05:05:39.651Z,20.30
2023-04-18T05:10:43.291Z,20.35
2023-04-18T05:15:49.507Z,22.48
2023-04-18T05:20:52.285Z,20.13
2023-04-18T05:25:56.020Z,19.70
2023-04-18T05:31:02.924Z,18.23
2023-04-18T05:36:06.622Z,19.50
2023-04-18T05:41:09.406Z,17.08
2023-04-18T05:46:16.818Z,16.88
2023-04-18T05:51:19.696Z,17.65
2023-04-18T05:56:22.487Z,15.95
2023-04-18T06:01:27.792Z,16.80
2023-04-18T06:06:33.880Z,14.68
2023-04-18T06:11:36.897Z,15.68
2023-04-18T06:16:42.800Z,13.13
2023-04-18T06:21:46.891Z,11.68
2023-04-18T06:26:50.931Z,12.55
2023-04-18T06:31:55.955Z,13.40
2023-04-18T06:36:58.827Z,12.10
2023-04-18T06:42:02.363Z,12.13
2023-04-18T06:47:07.701Z,10.88
2023-04-18T06:52:10.448Z,11.10
2023-04-18T06:57:15.393Z,10.50
2023-04-18T07:02:21.124Z,9.60
2023-04-18T07:07:28.455Z,8.95
2023-04-18T07:12:36.960Z,9.90
2023-04-18T07:17:41.914Z,12.73
2023-04-18T07:22:45.972Z,10.57
2023-04-18T07:27:48.887Z,10.95
2023-04-18T07:32:54.023Z,10.63
2023-04-18T07:37:57.473Z,9.98
2023-04-18T07:43:01.007Z,9.68
2023-04-18T07:48:05.765Z,10.25
2023-04-18T07:53:09.070Z,9.90
2023-04-18T07:58:14.496Z,9.93
2023-04-18T08:03:18.729Z,9.63
2023-04-18T08:08:21.724Z,9.98
2023-04-18T08:13:25.939Z,9.70
2023-04-18T08:18:31.893Z,10.48
2023-04-18T08:23:34.953Z,11.05
2023-04-18T08:28:38.064Z,11.45
2023-04-18T08:33:42.417Z,9.65
2023-04-18T08:38:45.995Z,11.52
2023-04-18T08:43:49.116Z,11.90
2023-04-18T08:48:53.639Z,11.02
2023-04-18T08:53:57.320Z,10.90
2023-04-18T08:59:00.761Z,9.45
2023-04-18T09:04:06.413Z,11.10
2023-04-18T09:09:09.179Z,11.25
2023-04-18T09:14:25.878Z,11.25
2023-04-18T09:19:30.610Z,11.60
2023-04-18T09:24:35.588Z,11.52
2023-04-18T09:29:47.281Z,11.05
2023-04-18T09:34:54.328Z,10.88
2023-04-18T09:39:57.152Z,10.10
2023-04-18T09:45:05.399Z,10.93
2023-04-18T09:50:12.271Z,8.70
2023-04-18T09:55:17.183Z,9.85
2023-04-18T10:00:25.074Z,9.52
2023-04-18T10:05:33.676Z,9.25
2023-04-18T10:10:38.806Z,9.07
2023-04-18T10:15:44.380Z,10.07
2023-04-18T10:20:48.630Z,8.55
2023-04-18T10:25:51.897Z,8.30
2023-04-18T10:31:04.226Z,7.85
2023-04-18T10:36:18.641Z,7.90
2023-04-18T10:41:25.331Z,7.20
2023-04-18T10:46:32.203Z,7.13
2023-04-18T10:51:37.767Z,6.95
2023-04-18T10:56:40.606Z,6.90
2023-04-18T11:01:50.160Z,6.40
2023-04-18T11:06:55.956Z,6.07
2023-04-18T11:12:08.145Z,5.75
2023-04-18T11:17:19.801Z,5.78
2023-04-18T11:22:23.998Z,9.45
2023-04-18T11:27:31.084Z,7.35
2023-04-18T11:32:35.573Z,5.72
2023-04-18T11:37:41.965Z,8.70
2023-04-18T11:42:45.993Z,17.60
2023-04-18T11:47:49.167Z,7.97
2023-04-18T11:52:54.912Z,11.63
2023-04-18T11:57:59.133Z,6.30
2023-04-18T12:03:04.471Z,9.40
2023-04-18T12:08:13.854Z,6.50
2023-04-18T12:13:17.844Z,14.70
2023-04-18T12:18:21.458Z,9.00
2023-04-18T12:23:33.935Z,7.45
2023-04-18T12:28:36.921Z,7.00
2023-04-18T12:33:42.313Z,7.82
2023-04-18T12:38:49.215Z,8.48
2023-04-18T12:43:53.911Z,7.90
2023-04-18T12:48:57.720Z,7.55
2023-04-18T12:54:02.184Z,8.10
2023-04-18T12:59:05.035Z,8.32
2023-04-18T13:04:12.502Z,7.82
2023-04-18T13:09:17.547Z,7.78
2023-04-18T13:14:20.354Z,8.18
2023-04-18T13:19:24.034Z,8.25
2023-04-18T13:24:30.407Z,8.35
2023-04-18T13:34:45.800Z,8.55
2023-04-18T13:39:49.952Z,8.23
2023-04-18T13:44:54.099Z,8.05
2023-04-18T13:49:58.333Z,7.97
2023-04-18T13:55:02.896Z,8.02
2023-04-18T14:00:07.151Z,8.30
2023-04-18T14:05:17.453Z,9.43
2023-04-18T14:10:22.291Z,10.63
2023-04-18T14:15:26.785Z,10.82
2023-04-18T14:20:34.547Z,10.15
2023-04-18T14:25:39.725Z,9.07
2023-04-18T14:30:42.473Z,8.75
2023-04-18T14:35:46.342Z,9.55
2023-04-18T14:40:52.126Z,9.48
2023-04-18T14:45:58.430Z,8.30
2023-04-18T14:51:03.502Z,8.25
2023-04-18T14:56:09.468Z,10.93
2023-04-18T15:01:12.531Z,7.88
2023-04-18T15:06:15.523Z,7.57
2023-04-18T15:11:20.329Z,7.68
2023-04-18T15:16:23.222Z,8.95
2023-04-18T15:21:27.649Z,7.60
2023-04-18T15:26:33.214Z,8.48
2023-04-18T15:31:39.223Z,7.30
2023-04-18T15:36:42.455Z,7.97
2023-04-18T15:41:47.341Z,10.40
2023-04-18T15:46:50.876Z,8.20
2023-04-18T15:51:54.141Z,7.68
2023-04-18T15:56:58.572Z,8.23
2023-04-18T16:02:02.497Z,6.22
2023-04-18T16:07:06.335Z,5.63
2023-04-18T16:12:10.527Z,5.68
2023-04-18T16:17:13.246Z,5.00
2023-04-18T16:22:16.068Z,4.78
2023-04-18T16:27:20.445Z,5.55
2023-04-18T16:32:23.374Z,5.80
2023-04-18T16:37:26.474Z,5.82
2023-04-18T16:42:30.631Z,5.25
2023-04-18T16:47:33.451Z,5.95
2023-04-18T16:52:36.200Z,5.28
2023-04-18T16:57:41.435Z,5.53
2023-04-18T17:02:45.405Z,5.47
2023-04-18T17:07:49.802Z,5.18
2023-04-18T17:12:54.498Z,5.63
2023-04-18T17:18:00.638Z,5.72
2023-04-18T17:23:04.902Z,5.60
2023-04-18T17:28:09.481Z,6.68
2023-04-18T17:33:13.336Z,6.72
2023-04-18T17:38:16.092Z,6.53
2023-04-18T17:43:21.481Z,8.50
2023-04-18T17:48:25.986Z,6.35
2023-04-18T17:53:30.221Z,6.57
2023-04-18T17:58:36.661Z,6.43
2023-04-18T18:03:39.904Z,6.40
2023-04-18T18:08:44.258Z,6.53
2023-04-18T18:13:51.575Z,6.80
2023-04-18T18:23:57.173Z,7.72
2023-04-18T18:29:02.161Z,7.97
2023-04-18T18:34:05.807Z,7.13
2023-04-18T18:39:09.593Z,7.57
2023-04-18T18:44:14.600Z,8.75
2023-04-18T18:49:17.522Z,8.82
2023-04-18T18:54:21.164Z,7.20
2023-04-18T18:59:25.497Z,8.65
2023-04-18T19:04:29.242Z,8.23
2023-04-18T19:09:32.241Z,8.43
2023-04-18T19:14:36.360Z,7.32
2023-04-18T19:19:39.844Z,7.40
2023-04-18T19:24:43.421Z,8.15
2023-04-18T19:29:47.661Z,8.27
2023-04-18T19:34:51.069Z,8.23
2023-04-18T19:39:53.829Z,7.88
2023-04-18T19:44:59.498Z,8.77
2023-04-18T19:50:02.418Z,8.38
2023-04-18T19:55:05.818Z,9.38
2023-04-18T20:00:14.111Z,7.95
2023-04-18T20:05:19.075Z,8.82
2023-04-18T20:10:22.723Z,9.02
2023-04-18T20:15:30.303Z,9.13
2023-04-18T20:20:33.378Z,8.63
2023-04-18T20:25:36.288Z,8.80
2023-04-18T20:30:41.013Z,9.23
2023-04-18T20:35:44.458Z,8.60
2023-04-18T20:40:47.342Z,8.57
2023-04-18T20:45:51.887Z,10.02
2023-04-18T20:50:55.358Z,10.05
2023-04-18T20:55:58.645Z,9.05
2023-04-18T21:01:03.334Z,8.77
2023-04-18T21:06:06.624Z,8.65
2023-04-18T21:11:09.523Z,8.68
2023-04-18T21:16:13.672Z,8.38
2023-04-18T21:21:16.389Z,9.18
2023-04-18T21:26:19.150Z,9.40
2023-04-18T21:31:23.351Z,8.90
2023-04-18T21:36:27.919Z,8.25
2023-04-18T21:41:30.707Z,7.82
2023-04-18T21:46:34.788Z,8.05
2023-04-18T21:51:37.620Z,7.53
2023-04-18T21:56:40.404Z,7.82
2023-04-18T22:01:44.796Z,7.97
2023-04-18T22:06:47.629Z,6.53
2023-04-18T22:11:51.598Z,6.60
2023-04-18T22:16:55.837Z,6.43
2023-04-18T22:21:58.908Z,6.03
2023-04-18T22:27:02.778Z,6.20
2023-04-18T22:32:07.724Z,6.28
2023-04-18T22:37:10.515Z,6.30
2023-04-18T22:42:13.261Z,5.25
2023-04-18T22:47:17.427Z,5.60
2023-04-18T22:52:23.748Z,4.85
2023-04-18T22:57:26.612Z,5.10
2023-04-18T23:02:30.873Z,6.88
2023-04-18T23:07:34.001Z,6.45
2023-04-18T23:12:36.779Z,6.18
2023-04-18T23:17:40.919Z,6.40
2023-04-18T23:22:43.704Z,7.05
2023-04-18T23:27:46.850Z,6.88
2023-04-18T23:32:51.014Z,7.13
2023-04-18T23:37:53.739Z,7.65
2023-04-18T23:42:57.107Z,6.65
2023-04-18T23:48:01.299Z,8.05
2023-04-18T23:53:04.206Z,7.57
2023-04-18T23:58:06.915Z,7.63
